メインページ
METAR-TAF:

METAR-TAF

空港 :

釧路, 日本

釧路空港

緯度: 43-02N, 経度: 144-12E, 海抜: 95m

現時点の気象観測

当レポートは49分前の23:00(UTC)に作成
北西の風 6kt
気温 -11°C
湿度 61%
気圧 1016 hPa
視程10km以上
高度200ftの雲はほとんどない
雲は散在している

METAR: RJCK 182300Z 32006KT 9999 FEW002 SCT/// M11/M17 Q1016

時間: 08:49 (23:49 UTC)

予報

当レポートは39分前の23:10(UTC)に作成
予報は19日の 00時(UTC)から 20日の 06時(UTC)まで有効
北西の風 5kt
視程10km以上
高度2000ftの雲はほとんどない
高度4000ftの雲は散在している
19日の 00時(UTC)から 19日の 02時(UTC)まで徐々に
南/南西の風 11kt
19日の 09時(UTC)から 19日の 11時(UTC)まで徐々に
西の風 6kt
20日の 00時(UTC)から 20日の 03時(UTC)まで徐々に
西/南西の風 9kt

TAF: RJCK 182310Z 1900/2006 31005KT 9999 FEW020 SCT040 BECMG 1900/1902 20011KT BECMG 1909/1911 26006KT BECMG 2000/2003 24009KT

4,000以上の空港の気象観測と天気予報(METAR報とTAF報)

利用可能な観測所は地図上に黄色い丸と赤い丸で示す。

丸の上にカーソルを重ねると観測所名を参照できる。

次にクリックすると気象観測と天気予報を参照できる。

マップの切り替え:黒色「×」印の緑ボタンをクリックして拡大、「-」印の緑ボタンをクリックして縮小、緑色の三角印をクリックして隣りの地図に切り替え


METAR-TAF: